To NAV CANADA Home Page Login to a new session Search on AWWS site Feedback and Comments Disclaimer Vers la page française équivalente Tips FAQ What's new on the site To the Forecasts and Observations / NOTAM section To "File a Flight Plan" website Publications and other links Update of the User's profile FIC Telephone Numbers My Weather Data Folder Route Weather Data Regional Weather Data Local Weather Data To the Forecasts and Observations / NOTAM section
Request Generated 04/19/2014 at 06:54:24 UTC . Weather information available at that time is displayed.

METAR/TAF

FARO/YT    

CZFA - METAR not available

*** REMARK        : Forecast period has ended; this was the last TAF issued
*** REMARQUE : La période de prévision est échue; ceci était le dernier TAF qui a été émis
TAF CZFA 181740Z 1818/1822 16008KT P6SM FEW040 SCT060 BKN090 TEMPO
1818/1822 P6SM -SHRA BKN050
BECMG 1820/1822 21008KT
RMK NXT FCST WILL BE ISSUED AT 191545Z=
Your time UTC time
Weather data provided by Environment Canada and NAV CANADA